createdAt,value
2023-02-06T00:02:03.234Z,54.30
2023-02-06T00:04:32.113Z,61.30
2023-02-06T00:07:03.764Z,62.90
2023-02-06T00:09:33.257Z,44.60
2023-02-06T00:12:02.443Z,50.40
2023-02-06T00:14:32.902Z,52.90
2023-02-06T00:17:18.175Z,50.60
2023-02-06T00:19:50.651Z,52.50
2023-02-06T00:22:19.392Z,68.30
2023-02-06T00:24:47.987Z,92.40
2023-02-06T00:27:16.924Z,109.70
2023-02-06T00:29:45.760Z,59.60
2023-02-06T00:32:15.395Z,63.50
2023-02-06T00:34:44.385Z,46.20
2023-02-06T00:37:14.897Z,37.10
2023-02-06T00:39:43.982Z,43.30
2023-02-06T00:42:12.732Z,48.20
2023-02-06T00:44:41.984Z,52.10
2023-02-06T00:47:10.952Z,57.50
2023-02-06T00:49:39.585Z,56.80
2023-02-06T00:52:08.312Z,46.20
2023-02-06T00:54:38.011Z,36.00
2023-02-06T00:57:06.664Z,57.70
2023-02-06T00:59:37.292Z,63.50
2023-02-06T01:02:06.241Z,54.20
2023-02-06T01:04:35.131Z,74.50
2023-02-06T01:07:04.845Z,78.90
2023-02-06T01:09:33.233Z,101.00
2023-02-06T01:12:01.776Z,132.40
2023-02-06T01:14:30.770Z,180.00
2023-02-06T01:16:59.494Z,273.30
2023-02-06T01:19:28.112Z,225.40
2023-02-06T01:21:56.982Z,193.30
2023-02-06T01:24:25.842Z,159.40
2023-02-06T01:26:54.923Z,74.70
2023-02-06T01:29:23.759Z,78.20
2023-02-06T01:31:52.480Z,44.50
2023-02-06T01:34:21.407Z,46.40
2023-02-06T01:36:50.110Z,47.20
2023-02-06T01:39:18.838Z,47.50
2023-02-06T01:41:47.528Z,70.00
2023-02-06T01:44:18.688Z,90.90
2023-02-06T01:46:48.545Z,99.60
2023-02-06T01:49:37.097Z,104.70
2023-02-06T01:52:12.192Z,84.50
2023-02-06T01:54:40.965Z,80.10
2023-02-06T01:57:11.483Z,80.50
2023-02-06T01:59:41.525Z,82.40
2023-02-06T02:02:10.286Z,85.10
2023-02-06T02:04:38.981Z,97.90
2023-02-06T02:07:22.153Z,90.40
2023-02-06T02:09:50.972Z,96.50
2023-02-06T02:12:19.687Z,116.10
2023-02-06T02:14:49.028Z,138.50
2023-02-06T02:17:40.057Z,146.00
2023-02-06T02:20:32.104Z,157.00
2023-02-06T02:23:35.663Z,192.30
2023-02-06T02:26:25.037Z,213.60
2023-02-06T02:29:31.548Z,134.30
2023-02-06T02:32:23.014Z,113.10
2023-02-06T02:35:03.999Z,108.20
2023-02-06T02:37:36.172Z,93.60
2023-02-06T02:40:12.681Z,91.70
2023-02-06T02:42:45.075Z,108.60
2023-02-06T02:45:19.931Z,95.90
2023-02-06T02:48:03.436Z,85.70
2023-02-06T02:50:35.146Z,91.60
2023-02-06T02:53:05.314Z,82.00
2023-02-06T02:55:34.285Z,82.90
2023-02-06T02:58:08.050Z,74.40
2023-02-06T03:00:41.594Z,64.10
2023-02-06T03:03:11.317Z,81.10
2023-02-06T03:05:59.711Z,81.00
2023-02-06T03:08:34.170Z,80.20
2023-02-06T03:11:15.644Z,68.80
2023-02-06T03:14:13.900Z,64.90
2023-02-06T03:16:46.621Z,85.30
2023-02-06T03:19:19.546Z,81.80
2023-02-06T03:21:48.474Z,78.50
2023-02-06T03:24:24.245Z,74.00
2023-02-06T03:26:55.048Z,77.70
2023-02-06T03:29:23.804Z,79.00
2023-02-06T03:31:57.860Z,90.70
2023-02-06T03:34:35.446Z,62.70
2023-02-06T03:37:04.349Z,69.70
2023-02-06T03:39:34.267Z,74.20
2023-02-06T03:42:02.988Z,81.50
2023-02-06T03:44:33.810Z,64.60
2023-02-06T03:47:03.259Z,51.70
2023-02-06T03:49:32.390Z,63.30
2023-02-06T03:52:09.881Z,61.40
2023-02-06T03:54:41.023Z,76.30
2023-02-06T03:57:11.970Z,65.20
2023-02-06T03:59:40.765Z,65.80
2023-02-06T04:02:09.525Z,74.70
2023-02-06T04:04:39.704Z,79.70
2023-02-06T04:07:20.484Z,73.90
2023-02-06T04:09:49.715Z,116.20
2023-02-06T04:12:18.494Z,113.90
2023-02-06T04:14:47.784Z,104.80
2023-02-06T04:17:27.326Z,96.60
2023-02-06T04:20:05.731Z,115.20
2023-02-06T04:22:34.626Z,109.50
2023-02-06T04:25:03.464Z,92.70
2023-02-06T04:27:32.256Z,101.40
2023-02-06T04:30:01.737Z,95.50
2023-02-06T04:32:30.777Z,91.30
2023-02-06T04:34:59.322Z,95.30
2023-02-06T04:37:28.125Z,92.20
2023-02-06T04:39:57.073Z,75.50
2023-02-06T04:42:25.768Z,89.20
2023-02-06T04:44:54.508Z,84.40
2023-02-06T04:47:23.091Z,78.20
2023-02-06T04:49:51.676Z,72.60
2023-02-06T04:52:20.803Z,79.20
2023-02-06T04:54:49.771Z,71.60
2023-02-06T04:57:18.341Z,80.10
2023-02-06T04:59:47.302Z,89.80
2023-02-06T05:02:15.938Z,84.30
2023-02-06T05:04:44.575Z,98.90
2023-02-06T05:07:13.488Z,104.30
2023-02-06T05:09:42.032Z,111.90
2023-02-06T05:12:12.632Z,111.40
2023-02-06T05:14:43.030Z,110.40
2023-02-06T05:17:14.475Z,82.40
2023-02-06T05:19:43.875Z,79.40
2023-02-06T05:22:12.936Z,89.90
2023-02-06T05:24:43.187Z,110.40
2023-02-06T05:27:12.434Z,98.30
2023-02-06T05:29:41.346Z,96.70
2023-02-06T05:32:10.165Z,107.00
2023-02-06T05:34:38.938Z,87.40
2023-02-06T05:37:07.647Z,102.40
2023-02-06T05:39:36.513Z,116.30
2023-02-06T05:42:06.423Z,143.20
2023-02-06T05:44:35.385Z,107.20
2023-02-06T05:47:04.364Z,104.70
2023-02-06T05:49:33.433Z,116.70
2023-02-06T05:52:02.088Z,109.50
2023-02-06T05:54:31.101Z,142.50
2023-02-06T05:57:01.393Z,299.50
2023-02-06T05:59:30.434Z,245.90
2023-02-06T06:01:59.333Z,457.50
2023-02-06T06:04:29.065Z,391.40
2023-02-06T06:06:57.754Z,147.50
2023-02-06T06:09:26.747Z,81.70
2023-02-06T06:11:56.560Z,91.50
2023-02-06T06:14:26.624Z,107.00
2023-02-06T06:16:55.261Z,102.30
2023-02-06T06:19:24.116Z,129.00
2023-02-06T06:21:52.836Z,135.90
2023-02-06T06:24:21.846Z,113.00
2023-02-06T06:26:50.618Z,93.00
2023-02-06T06:29:19.810Z,90.30
2023-02-06T06:31:49.057Z,93.70
2023-02-06T06:34:17.918Z,94.20
2023-02-06T06:36:46.740Z,115.10
2023-02-06T06:39:15.562Z,92.40
2023-02-06T06:41:44.560Z,121.60
2023-02-06T06:44:13.401Z,113.50
2023-02-06T06:46:42.343Z,68.20
2023-02-06T06:49:11.338Z,44.80
2023-02-06T06:51:39.936Z,41.80
2023-02-06T06:54:08.836Z,47.10
2023-02-06T06:56:37.828Z,46.70
2023-02-06T06:59:06.663Z,36.60
2023-02-06T07:01:36.174Z,46.30
2023-02-06T07:04:05.228Z,37.80
2023-02-06T07:06:36.107Z,65.80
2023-02-06T07:09:05.115Z,57.00
2023-02-06T07:11:33.837Z,69.50
2023-02-06T07:14:03.019Z,74.90
2023-02-06T07:16:32.026Z,56.50
2023-02-06T07:19:00.825Z,45.90
2023-02-06T07:21:35.908Z,50.10
2023-02-06T07:24:07.200Z,43.10
2023-02-06T07:26:36.173Z,40.70
2023-02-06T07:29:06.367Z,38.30
2023-02-06T07:31:35.724Z,29.00
2023-02-06T07:34:04.630Z,35.10
2023-02-06T07:36:33.439Z,31.80
2023-02-06T07:39:03.613Z,67.50
2023-02-06T07:41:32.667Z,34.30
2023-02-06T07:44:02.095Z,84.10
2023-02-06T07:46:33.216Z,85.00
2023-02-06T07:49:02.106Z,80.00
2023-02-06T07:51:30.932Z,73.10
2023-02-06T07:53:59.846Z,79.10
2023-02-06T07:56:28.504Z,73.40
2023-02-06T07:58:57.182Z,77.50
2023-02-06T08:01:26.191Z,85.40
2023-02-06T08:03:55.048Z,59.50
2023-02-06T08:06:24.913Z,46.40
2023-02-06T08:08:56.821Z,46.90
2023-02-06T08:11:30.374Z,62.70
2023-02-06T08:13:59.458Z,44.50
2023-02-06T08:16:29.069Z,48.60
2023-02-06T08:18:58.209Z,60.30
2023-02-06T08:24:00.006Z,51.00
2023-02-06T08:26:29.662Z,38.50
2023-02-06T08:29:01.449Z,42.80
2023-02-06T08:31:32.526Z,55.60
2023-02-06T08:34:01.938Z,41.80
2023-02-06T08:36:33.351Z,47.80
2023-02-06T08:39:02.925Z,41.40
2023-02-06T08:41:39.878Z,42.00
2023-02-06T08:44:11.972Z,71.90
2023-02-06T08:46:41.226Z,64.70
2023-02-06T08:49:28.654Z,115.70
2023-02-06T08:51:57.710Z,62.20
2023-02-06T08:54:26.683Z,42.10
2023-02-06T08:56:57.174Z,43.80
2023-02-06T08:59:25.786Z,43.80
2023-02-06T09:01:54.643Z,36.60
2023-02-06T09:04:23.697Z,32.20
2023-02-06T09:06:52.441Z,23.40
2023-02-06T09:09:20.632Z,31.50
2023-02-06T09:11:48.778Z,26.60
2023-02-06T09:14:18.071Z,37.10
2023-02-06T09:16:47.386Z,44.70
2023-02-06T09:19:16.339Z,38.70
2023-02-06T09:21:45.080Z,50.70
2023-02-06T09:24:14.006Z,41.80
2023-02-06T09:26:58.562Z,96.10
2023-02-06T09:29:29.470Z,74.40
2023-02-06T09:31:58.412Z,79.30
2023-02-06T09:34:27.425Z,55.60
2023-02-06T09:36:57.064Z,67.10
2023-02-06T09:39:25.968Z,75.30
2023-02-06T09:41:56.908Z,43.70
2023-02-06T09:44:36.061Z,43.20
2023-02-06T09:47:30.544Z,33.80
2023-02-06T09:50:32.761Z,52.70
2023-02-06T09:53:22.764Z,42.70
2023-02-06T09:56:02.104Z,38.70
2023-02-06T09:58:41.319Z,44.40
2023-02-06T10:01:24.086Z,51.10
2023-02-06T10:04:16.825Z,84.40
2023-02-06T10:06:56.858Z,66.40
2023-02-06T10:09:30.773Z,62.10
2023-02-06T10:12:01.990Z,33.50
2023-02-06T10:14:41.121Z,43.80
2023-02-06T10:17:18.534Z,39.80
2023-02-06T10:19:50.573Z,40.10
2023-02-06T10:25:11.507Z,57.60
2023-02-06T10:27:43.375Z,65.60
2023-02-06T10:30:18.320Z,73.20
2023-02-06T10:33:25.615Z,89.50
2023-02-06T10:36:16.704Z,61.60
2023-02-06T10:39:06.358Z,34.50
2023-02-06T10:41:43.354Z,37.50
2023-02-06T10:44:19.134Z,34.70
2023-02-06T10:46:48.768Z,27.60
2023-02-06T10:49:17.582Z,25.60
2023-02-06T10:51:49.439Z,49.90
2023-02-06T10:54:26.777Z,48.40
2023-02-06T10:56:56.716Z,36.70
2023-02-06T10:59:48.341Z,37.60
2023-02-06T11:03:01.333Z,30.50
2023-02-06T11:05:36.285Z,40.00
2023-02-06T11:08:11.329Z,141.40
2023-02-06T11:10:40.752Z,123.00
2023-02-06T11:13:16.043Z,107.00
2023-02-06T11:15:49.442Z,96.10
2023-02-06T11:18:20.438Z,79.90
2023-02-06T11:20:49.249Z,107.10
2023-02-06T11:23:23.177Z,87.50
2023-02-06T11:26:06.010Z,74.60
2023-02-06T11:28:35.718Z,49.40
2023-02-06T11:31:06.719Z,72.50
2023-02-06T11:33:52.203Z,65.70
2023-02-06T11:36:24.937Z,157.00
2023-02-06T11:41:23.344Z,57.10
2023-02-06T11:43:54.125Z,78.10
2023-02-06T11:46:28.556Z,73.30
2023-02-06T11:48:58.804Z,102.70
2023-02-06T11:51:52.080Z,57.20
2023-02-06T11:54:33.023Z,94.80
2023-02-06T11:57:21.787Z,80.70
2023-02-06T11:59:55.568Z,66.50
2023-02-06T12:02:30.298Z,67.50
2023-02-06T12:05:09.949Z,92.50
2023-02-06T12:08:03.014Z,94.20
2023-02-06T12:10:34.903Z,69.00
2023-02-06T12:15:47.046Z,48.80
2023-02-06T12:18:25.684Z,46.30
2023-02-06T12:20:55.438Z,27.90
2023-02-06T12:23:37.143Z,36.60
2023-02-06T12:26:09.133Z,57.00
2023-02-06T12:29:00.476Z,45.00
2023-02-06T12:31:32.661Z,39.80
2023-02-06T12:34:18.639Z,35.50
2023-02-06T12:36:58.999Z,28.40
2023-02-06T12:39:32.561Z,33.20
2023-02-06T12:42:18.478Z,61.70
2023-02-06T12:44:52.205Z,41.30
2023-02-06T12:47:30.288Z,55.40
2023-02-06T12:50:02.436Z,59.90
2023-02-06T12:55:42.998Z,76.10
2023-02-06T12:58:43.009Z,75.50
2023-02-06T13:01:29.962Z,63.60
2023-02-06T13:04:02.076Z,37.60
2023-02-06T13:06:44.457Z,25.70
2023-02-06T13:09:41.684Z,35.10
2023-02-06T13:12:24.256Z,28.50
2023-02-06T13:14:58.989Z,45.80
2023-02-06T13:17:39.604Z,36.60
2023-02-06T13:20:09.664Z,33.70
2023-02-06T13:23:10.654Z,30.80
2023-02-06T13:25:40.414Z,48.90
2023-02-06T13:28:22.486Z,82.40
2023-02-06T13:31:04.530Z,71.30
2023-02-06T13:34:04.849Z,51.50
2023-02-06T13:36:49.491Z,53.40
2023-02-06T13:39:26.038Z,38.10
2023-02-06T13:41:54.718Z,39.30
2023-02-06T13:44:27.836Z,46.00
2023-02-06T13:47:08.800Z,84.40
2023-02-06T13:50:22.453Z,76.60
2023-02-06T13:53:25.773Z,124.00
2023-02-06T13:56:10.400Z,101.70
2023-02-06T13:58:50.394Z,84.60
2023-02-06T14:01:23.475Z,81.00
2023-02-06T14:03:53.797Z,91.60
2023-02-06T14:06:48.093Z,99.00
2023-02-06T14:09:30.873Z,98.70
2023-02-06T14:12:39.349Z,64.50
2023-02-06T14:15:14.422Z,65.90
2023-02-06T14:18:20.890Z,49.90
2023-02-06T14:20:58.903Z,31.10
2023-02-06T14:23:50.516Z,31.60
2023-02-06T14:26:37.912Z,34.20
2023-02-06T14:29:22.060Z,29.80
2023-02-06T14:31:59.821Z,18.40
2023-02-06T14:34:32.440Z,35.50
2023-02-06T14:39:56.346Z,45.80
2023-02-06T14:42:32.424Z,34.60
2023-02-06T14:45:04.944Z,101.80
2023-02-06T14:47:42.534Z,143.00
2023-02-06T14:50:21.514Z,118.10
2023-02-06T14:52:59.436Z,114.40
2023-02-06T14:55:37.688Z,120.70
2023-02-06T14:58:21.487Z,128.00
2023-02-06T15:00:50.973Z,123.20
2023-02-06T15:03:23.376Z,78.80
2023-02-06T15:06:04.818Z,150.90
2023-02-06T15:08:34.179Z,152.50
2023-02-06T15:11:07.591Z,86.70
2023-02-06T15:13:51.375Z,62.30
2023-02-06T15:16:21.193Z,102.10
2023-02-06T15:18:49.931Z,91.30
2023-02-06T15:21:19.381Z,81.50
2023-02-06T15:24:02.563Z,115.00
2023-02-06T15:26:40.706Z,118.80
2023-02-06T15:29:19.574Z,52.60
2023-02-06T15:31:49.357Z,74.50
2023-02-06T15:34:19.185Z,68.50
2023-02-06T15:36:48.213Z,74.10
2023-02-06T15:39:17.465Z,97.90
2023-02-06T15:41:48.661Z,123.10
2023-02-06T15:46:54.036Z,167.10
2023-02-06T15:49:43.635Z,150.20
2023-02-06T15:52:14.109Z,109.50
2023-02-06T15:54:45.317Z,145.50
2023-02-06T15:57:32.312Z,133.10
2023-02-06T16:00:01.864Z,137.20
2023-02-06T16:02:40.985Z,102.30
2023-02-06T16:05:22.665Z,85.00
2023-02-06T16:07:53.464Z,81.70
2023-02-06T16:10:23.468Z,71.00
2023-02-06T16:12:52.714Z,55.10
2023-02-06T16:15:29.869Z,94.50
2023-02-06T16:18:01.151Z,95.50
2023-02-06T16:20:37.234Z,140.20
2023-02-06T16:23:21.703Z,143.40
2023-02-06T16:26:05.278Z,161.80
2023-02-06T16:28:40.279Z,140.70
2023-02-06T16:31:16.792Z,134.20
2023-02-06T16:33:49.356Z,121.10
2023-02-06T16:36:19.665Z,76.20
2023-02-06T16:39:02.827Z,62.70
2023-02-06T16:41:38.019Z,67.60
2023-02-06T16:44:11.929Z,55.70
2023-02-06T16:46:40.903Z,50.70
2023-02-06T16:49:16.237Z,51.10
2023-02-06T16:51:45.465Z,50.00
2023-02-06T16:54:32.229Z,67.40
2023-02-06T16:57:10.116Z,85.60
2023-02-06T16:59:39.707Z,116.10
2023-02-06T17:02:12.104Z,142.60
2023-02-06T17:04:45.540Z,132.80
2023-02-06T17:07:22.468Z,99.10
2023-02-06T17:09:51.983Z,101.20
2023-02-06T17:12:21.503Z,176.90
2023-02-06T17:14:51.213Z,146.80
2023-02-06T17:17:22.053Z,143.90
2023-02-06T17:19:54.069Z,125.90
2023-02-06T17:22:23.518Z,144.50
2023-02-06T17:24:53.752Z,132.40
2023-02-06T17:27:23.253Z,123.80
2023-02-06T17:29:54.304Z,146.80
2023-02-06T17:32:23.602Z,149.60
2023-02-06T17:34:54.629Z,93.80
2023-02-06T17:37:23.889Z,98.30
2023-02-06T17:39:53.152Z,81.40
2023-02-06T17:42:23.786Z,51.60
2023-02-06T17:44:53.797Z,72.20
2023-02-06T17:47:23.159Z,49.20
2023-02-06T17:49:53.165Z,48.40
2023-02-06T17:52:22.391Z,53.10
2023-02-06T17:54:51.355Z,62.80
2023-02-06T17:57:20.780Z,62.90
2023-02-06T17:59:53.032Z,68.00
2023-02-06T18:04:53.509Z,114.50
2023-02-06T18:07:22.727Z,146.80
2023-02-06T18:09:51.889Z,183.70
2023-02-06T18:12:21.029Z,135.30
2023-02-06T18:14:50.451Z,128.20
2023-02-06T18:17:19.700Z,140.20
2023-02-06T18:19:50.210Z,176.60
2023-02-06T18:22:21.788Z,145.60
2023-02-06T18:24:51.022Z,153.70
2023-02-06T18:27:21.887Z,127.10
2023-02-06T18:29:55.301Z,197.00
2023-02-06T18:32:24.763Z,134.20
2023-02-06T18:34:53.798Z,142.70
2023-02-06T18:37:23.205Z,107.10
2023-02-06T18:39:52.512Z,108.70
2023-02-06T18:42:40.296Z,74.00
2023-02-06T18:45:09.740Z,70.20
2023-02-06T18:47:39.335Z,75.30
2023-02-06T18:50:09.915Z,80.70
2023-02-06T18:52:39.944Z,63.70
2023-02-06T18:55:09.679Z,52.20
2023-02-06T18:57:38.951Z,64.30
2023-02-06T19:00:11.457Z,70.20
2023-02-06T19:02:41.245Z,76.00
2023-02-06T19:05:10.530Z,52.20
2023-02-06T19:07:40.722Z,56.90
2023-02-06T19:10:16.640Z,64.80
2023-02-06T19:12:45.911Z,65.40
2023-02-06T19:15:15.152Z,76.00
2023-02-06T19:17:44.683Z,100.50
2023-02-06T19:20:14.000Z,119.50
2023-02-06T19:22:43.358Z,140.30
2023-02-06T19:25:14.617Z,79.30
2023-02-06T19:27:44.560Z,89.00
2023-02-06T19:30:14.176Z,76.10
2023-02-06T19:32:43.691Z,62.90
2023-02-06T19:35:12.896Z,95.10
2023-02-06T19:37:42.772Z,76.40
2023-02-06T19:40:11.906Z,77.50
2023-02-06T19:42:42.575Z,74.90
2023-02-06T19:45:12.153Z,97.10
2023-02-06T19:47:41.736Z,94.80
2023-02-06T19:50:12.584Z,127.20
2023-02-06T19:52:43.485Z,83.40
2023-02-06T19:55:12.717Z,96.80
2023-02-06T19:57:41.686Z,128.90
2023-02-06T20:00:11.539Z,127.90
2023-02-06T20:02:42.677Z,121.10
2023-02-06T20:05:11.605Z,90.90
2023-02-06T20:07:41.221Z,124.30
2023-02-06T20:10:11.099Z,86.40
2023-02-06T20:15:13.378Z,136.80
2023-02-06T20:17:42.596Z,118.10
2023-02-06T20:20:12.832Z,78.50
2023-02-06T20:22:41.909Z,62.80
2023-02-06T20:25:11.104Z,53.50
2023-02-06T20:27:40.446Z,51.20
2023-02-06T20:30:10.189Z,48.90
2023-02-06T20:32:40.138Z,82.40
2023-02-06T20:35:09.404Z,119.60
2023-02-06T20:37:38.445Z,80.50
2023-02-06T20:40:08.538Z,58.20
2023-02-06T20:42:42.387Z,69.00
2023-02-06T20:45:12.537Z,96.90
2023-02-06T20:47:41.616Z,97.80
2023-02-06T20:50:10.620Z,68.90
2023-02-06T20:52:39.560Z,72.50
2023-02-06T20:55:08.945Z,85.00
2023-02-06T20:57:38.158Z,128.20
2023-02-06T21:00:08.498Z,138.90
2023-02-06T21:02:37.622Z,91.70
2023-02-06T21:05:07.432Z,105.90
2023-02-06T21:07:38.081Z,80.20
2023-02-06T21:10:07.683Z,108.00
2023-02-06T21:12:36.879Z,107.70
2023-02-06T21:15:06.434Z,118.10
2023-02-06T21:17:35.662Z,124.70
2023-02-06T21:20:09.962Z,82.70
2023-02-06T21:22:39.005Z,96.00
2023-02-06T21:25:07.752Z,68.80
2023-02-06T21:27:37.871Z,72.90
2023-02-06T21:30:08.117Z,58.90
2023-02-06T21:32:37.702Z,72.90
2023-02-06T21:35:08.725Z,78.10
2023-02-06T21:37:38.609Z,60.80
2023-02-06T21:40:08.055Z,73.50
2023-02-06T21:42:37.009Z,65.70
2023-02-06T21:45:07.489Z,110.20
2023-02-06T21:47:36.823Z,127.70
2023-02-06T21:50:06.085Z,120.60
2023-02-06T21:52:36.000Z,124.30
2023-02-06T21:55:07.620Z,167.30
2023-02-06T21:57:37.418Z,96.10
2023-02-06T22:00:10.055Z,101.80
2023-02-06T22:02:41.812Z,79.60
2023-02-06T22:05:10.527Z,105.80
2023-02-06T22:07:39.311Z,84.90
2023-02-06T22:10:09.179Z,92.00
2023-02-06T22:12:38.062Z,142.90
2023-02-06T22:15:08.132Z,124.30
2023-02-06T22:17:37.176Z,134.80
2023-02-06T22:20:06.451Z,113.10
2023-02-06T22:22:37.564Z,154.90
2023-02-06T22:25:08.325Z,107.90
2023-02-06T22:27:37.866Z,135.30
2023-02-06T22:30:07.857Z,153.90
2023-02-06T22:32:39.135Z,121.30
2023-02-06T22:35:08.157Z,123.70
2023-02-06T22:37:38.784Z,129.80
2023-02-06T22:40:08.024Z,205.90
2023-02-06T22:42:38.187Z,172.90
2023-02-06T22:45:07.434Z,131.70
2023-02-06T22:47:36.184Z,102.20
2023-02-06T22:50:05.127Z,149.30
2023-02-06T22:52:53.313Z,119.60
2023-02-06T22:55:22.042Z,118.90
2023-02-06T22:57:53.692Z,109.00
2023-02-06T23:00:22.634Z,96.40
2023-02-06T23:02:52.195Z,111.20
2023-02-06T23:05:20.870Z,84.20
2023-02-06T23:07:50.131Z,43.00
2023-02-06T23:10:19.042Z,36.10
2023-02-06T23:12:47.756Z,61.10
2023-02-06T23:15:16.720Z,70.40
2023-02-06T23:17:48.718Z,59.60
2023-02-06T23:20:18.021Z,35.70
2023-02-06T23:22:47.761Z,55.80
2023-02-06T23:25:16.764Z,53.30
2023-02-06T23:27:45.487Z,51.20
2023-02-06T23:30:15.764Z,37.50
2023-02-06T23:32:44.902Z,39.20
2023-02-06T23:35:13.600Z,33.00
2023-02-06T23:37:42.706Z,36.90
2023-02-06T23:40:12.128Z,48.80
2023-02-06T23:42:41.081Z,67.90
2023-02-06T23:45:10.401Z,56.50
2023-02-06T23:47:39.400Z,78.20
2023-02-06T23:50:08.738Z,61.90
2023-02-06T23:52:38.445Z,60.70
2023-02-06T23:55:07.925Z,73.20
2023-02-06T23:57:37.594Z,108.00
